Elk, Pennsylvania
Current Conditions -  °F | °C
As of 3:55 AM on Wednesday 26 Nov 2014 (Local Time) from KN38 Reporting Station
Scattered Clouds Scattered Clouds  
Wind Chill: 30°   Ceiling: Unl
Heat Index: 30°   Visibility: 10mi
Dew Point: 23°   Wind: 0mph
Humidity: 75%   Direction: NA
Pressure: 30.18"   Gusts: NA
Location:  41.6649°N, 77.5403°W
Report Text: KN38 260855Z AUTO 00000KT 10SM FEW025 SCT120 M01/M05 A3018 RMK AO2
Loading
Personal Weather Stations






























Interactive Weather Map New forecast layout! Learn more

10-Day Weather Forecast

Advertisements
Track Severe Weather on mobile